Time;durP1;ratioP1;P1;durP2;ratioP2;P2;SDS_P1;SDS_P2;PMS_P1;PMS_P2;Temp;Humidity;BMP_temperature;BMP_pressure;BME280_temperature;BME280_humidity;BME280_pressure;Samples;Min_cycle;Max_cycle;Signal;HPM_P1;HPM_P2
2021/03/30 00:01:01;;;;;;;;;;;;;;;;;;2070540;28;7166;-60
2021/03/30 00:02:03;;;;;;;;;;;;;;;;;;2070045;28;7110;-61
2021/03/30 00:03:05;;;;;;;;;;;;;;;;;;2070800;28;7096;-61
2021/03/30 00:04:07;;;;;;;;;;;;;;;;;;2071062;28;7009;-61
2021/03/30 00:05:09;;;;;;;;;;;;;;;;;;2070296;28;8032;-60
2021/03/30 00:06:12;;;;;;;;;;;;;;;;;;2070890;28;7013;-61
2021/03/30 00:07:14;;;;;;;;;;;;;;;;;;2070704;28;7037;-61
2021/03/30 00:08:15;;;;;;;;;;;;;;;;;;2067413;28;7046;-61
2021/03/30 00:09:17;;;;;;;;;;;;;;;;;;2062899;28;7973;-60
2021/03/30 00:10:22;;;;;;;;;;;;;;;;;;2062914;28;7013;-60
2021/03/30 00:11:24;;;;;;;;;;;;;;;;;;2062446;28;7010;-61
2021/03/30 00:12:26;;;;;;;;;;;;;;;;;;2063340;28;7046;-61
2021/03/30 00:13:28;;;;;;;;;;;;;;;;;;2064367;28;7013;-60
2021/03/30 00:14:30;;;;;;;;;;;;;;;;;;2074134;28;8047;-61
2021/03/30 00:15:32;;;;;;;;;;;;;;;;;;2071171;28;7241;-60
2021/03/30 00:16:33;;;;;;;;;;;;;;;;;;2067488;28;7034;-60
2021/03/30 00:17:35;;;;;;;;;;;;;;;;;;2071670;28;7096;-61
2021/03/30 00:18:38;;;;;;;;;;;;;;;;;;2066998;28;7042;-60
2021/03/30 00:19:40;;;;;;;;;;;;;;;;;;2063763;28;8000;-61
2021/03/30 00:20:42;;;;;;;;;;;;;;;;;;2064012;28;7312;-60
2021/03/30 00:21:44;;;;;;;;;;;;;;;;;;2069594;28;8137;-61
2021/03/30 00:22:46;;;;;;;;;;;;;;;;;;2071917;28;7046;-61
2021/03/30 00:23:49;;;;;;;;;;;;;;;;;;2072151;28;7133;-60
2021/03/30 00:24:51;;;;;;;;;;;;;;;;;;2071883;28;7144;-61
2021/03/30 00:25:53;;;;;;;;;;;;;;;;;;2071998;28;7144;-61
2021/03/30 00:26:55;;;;;;;;;;;;;;;;;;2070288;28;7268;-60
2021/03/30 00:27:57;;;;;;;;;;;;;;;;;;2064127;28;8043;-61
2021/03/30 00:28:59;;;;;;;;;;;;;;;;;;2064413;28;7497;-60
2021/03/30 00:30:01;;;;;;;;;;;;;;;;;;2063758;28;7137;-60
2021/03/30 00:31:03;;;;;;;;;;;;;;;;;;2070889;28;7134;-60
2021/03/30 00:32:05;;;;;;;;;;;;;;;;;;2071702;28;8026;-61
2021/03/30 00:33:07;;;;;;;;;;;;;;;;;;2063911;28;7013;-60
2021/03/30 00:34:09;;;;;;;;;;;;;;;;;;2063606;28;8031;-61
2021/03/30 00:35:11;;;;;;;;;;;;;;;;;;2064395;28;7009;-61
2021/03/30 00:36:13;;;;;;;;;;;;;;;;;;2063992;28;7022;-60
2021/03/30 00:37:15;;;;;;;;;;;;;;;;;;2064359;28;7097;-60
2021/03/30 00:38:17;;;;;;;;;;;;;;;;;;2070984;28;7088;-60
2021/03/30 00:39:19;;;;;;;;;;;;;;;;;;2072247;28;7198;-60
2021/03/30 00:40:21;;;;;;;;;;;;;;;;;;2072507;28;7077;-60
2021/03/30 00:41:23;;;;;;;;;;;;;;;;;;2072895;28;7054;-60
2021/03/30 00:42:25;;;;;;;;;;;;;;;;;;2072291;28;8019;-61
2021/03/30 00:43:29;;;;;;;;;;;;;;;;;;2072069;28;7221;-60
2021/03/30 00:44:31;;;;;;;;;;;;;;;;;;2071159;28;7013;-60
2021/03/30 00:45:36;;;;;;;;;;;;;;;;;;2072696;28;8143;-60
2021/03/30 00:46:44;;;;;;;;;;;;;;;;;;2072027;28;8028;-60
2021/03/30 00:47:47;;;;;;;;;;;;;;;;;;2072072;28;7002;-60
2021/03/30 00:48:50;;;;;;;;;;;;;;;;;;2072093;28;8366;-60
2021/03/30 00:49:52;;;;;;;;;;;;;;;;;;2064501;28;7312;-60
2021/03/30 00:50:55;;;;;;;;;;;;;;;;;;2064465;28;7097;-60
2021/03/30 00:51:57;;;;;;;;;;;;;;;;;;2063715;28;7062;-60
2021/03/30 00:53:00;;;;;;;;;;;;;;;;;;2063427;28;7976;-61
2021/03/30 00:54:02;;;;;;;;;;;;;;;;;;2071111;28;7092;-60
2021/03/30 00:55:05;;;;;;;;;;;;;;;;;;2064430;28;7101;-60
2021/03/30 00:56:07;;;;;;;;;;;;;;;;;;2064361;28;7017;-61
2021/03/30 00:57:10;;;;;;;;;;;;;;;;;;2063994;28;7134;-61
2021/03/30 00:58:12;;;;;;;;;;;;;;;;;;2064136;28;7108;-60
2021/03/30 00:59:16;;;;;;;;;;;;;;;;;;2063869;28;7010;-60
2021/03/30 01:00:18;;;;;;;;;;;;;;;;;;2063790;28;7112;-60
2021/03/30 01:01:20;;;;;;;;;;;;;;;;;;2063974;28;7153;-60
2021/03/30 01:02:22;;;;;;;;;;;;;;;;;;2063978;28;7070;-60
2021/03/30 01:03:24;;;;;;;;;;;;;;;;;;2063842;28;7136;-60
2021/03/30 01:04:26;;;;;;;;;;;;;;;;;;2063911;28;8024;-60
2021/03/30 01:05:28;;;;;;;;;;;;;;;;;;2063964;28;8084;-60
2021/03/30 01:06:30;;;;;;;;;;;;;;;;;;2064396;28;7005;-61
2021/03/30 01:07:33;;;;;;;;;;;;;;;;;;2064166;28;8057;-60
2021/03/30 01:08:38;;;;;;;;;;;;;;;;;;2065487;28;7058;-60
2021/03/30 01:09:58;;;;;;;;;;;;;;;;;;2071049;28;7044;-60
2021/03/30 01:11:36;;;;;;;;;;;;;;;;;;2071554;28;8026;-61
2021/03/30 01:13:01;;;;;;;;;;;;;;;;;;2054454;28;7013;-60
2021/03/30 01:14:17;;;;;;;;;;;;;;;;;;2054883;28;7022;-61
2021/03/30 01:15:27;;;;;;;;;;;;;;;;;;2061004;28;7014;-60
2021/03/30 01:16:45;;;;;;;;;;;;;;;;;;2069163;28;7014;-60
2021/03/30 01:17:59;;;;;;;;;;;;;;;;;;2071362;28;7320;-60
2021/03/30 01:19:08;;;;;;;;;;;;;;;;;;2071284;28;7014;-61
2021/03/30 01:20:25;;;;;;;;;;;;;;;;;;2071576;28;7029;-60
2021/03/30 01:21:53;;;;;;;;;;;;;;;;;;2067907;28;7125;-61
2021/03/30 01:23:07;;;;;;;;;;;;;;;;;;2051435;28;7010;-61
2021/03/30 01:24:12;;;;;;;;;;;;;;;;;;2063493;28;7006;-60
2021/03/30 01:25:15;;;;;;;;;;;;;;;;;;2071803;28;7147;-60
2021/03/30 01:26:20;;;;;;;;;;;;;;;;;;2071169;28;8039;-61
2021/03/30 01:27:40;;;;;;;;;;;;;;;;;;2064939;28;7159;-60
2021/03/30 01:28:49;;;;;;;;;;;;;;;;;;2063010;28;7280;-61
2021/03/30 01:29:52;;;;;;;;;;;;;;;;;;2070835;28;8054;-61
2021/03/30 01:30:56;;;;;;;;;;;;;;;;;;2071054;28;7009;-60
2021/03/30 01:32:01;;;;;;;;;;;;;;;;;;2071833;28;8176;-60
2021/03/30 01:33:08;;;;;;;;;;;;;;;;;;2070498;28;7045;-61
2021/03/30 01:34:11;;;;;;;;;;;;;;;;;;2071726;28;8002;-60
2021/03/30 01:35:20;;;;;;;;;;;;;;;;;;2071908;28;7093;-60
2021/03/30 01:36:24;;;;;;;;;;;;;;;;;;2071992;28;7009;-61
2021/03/30 01:37:26;;;;;;;;;;;;;;;;;;2071319;28;7025;-60
2021/03/30 01:38:29;;;;;;;;;;;;;;;;;;2071335;28;7037;-60
2021/03/30 01:39:33;;;;;;;;;;;;;;;;;;2072340;28;7305;-60
2021/03/30 01:40:36;;;;;;;;;;;;;;;;;;2071935;28;7009;-60
2021/03/30 01:41:40;;;;;;;;;;;;;;;;;;2071304;28;8051;-60
2021/03/30 01:42:45;;;;;;;;;;;;;;;;;;2070951;28;7017;-61
2021/03/30 01:43:48;;;;;;;;;;;;;;;;;;2071536;28;7025;-61
2021/03/30 01:44:51;;;;;;;;;;;;;;;;;;2071871;28;7009;-60
2021/03/30 01:45:55;;;;;;;;;;;;;;;;;;2071874;28;7049;-60
2021/03/30 01:47:00;;;;;;;;;;;;;;;;;;2071236;28;7013;-60
2021/03/30 01:48:03;;;;;;;;;;;;;;;;;;2071908;28;7025;-60
2021/03/30 01:49:06;;;;;;;;;;;;;;;;;;2069175;28;7096;-60
2021/03/30 01:50:11;;;;;;;;;;;;;;;;;;2070774;28;7025;-60
2021/03/30 01:51:14;;;;;;;;;;;;;;;;;;2070665;28;7198;-60
2021/03/30 01:52:17;;;;;;;;;;;;;;;;;;2063527;28;7198;-60
2021/03/30 01:53:22;;;;;;;;;;;;;;;;;;2068949;28;7108;-60
2021/03/30 01:54:24;;;;;;;;;;;;;;;;;;2071459;28;7360;-61
2021/03/30 01:55:27;;;;;;;;;;;;;;;;;;2071589;28;7025;-60
2021/03/30 01:56:30;;;;;;;;;;;;;;;;;;2071587;28;7050;-59
2021/03/30 01:57:33;;;;;;;;;;;;;;;;;;2071779;28;7025;-60
2021/03/30 01:58:37;;;;;;;;;;;;;;;;;;2063930;28;7089;-60
2021/03/30 01:59:40;;;;;;;;;;;;;;;;;;2071851;28;7013;-60
2021/03/30 02:00:42;;;;;;;;;;;;;;;;;;2072199;28;7005;-61
2021/03/30 02:01:46;;;;;;;;;;;;;;;;;;2071894;28;8017;-60
2021/03/30 02:02:49;;;;;;;;;;;;;;;;;;2071859;28;7042;-60
2021/03/30 02:03:51;;;;;;;;;;;;;;;;;;2071695;28;7101;-60
2021/03/30 02:04:54;;;;;;;;;;;;;;;;;;2071860;28;7144;-60
2021/03/30 02:05:57;;;;;;;;;;;;;;;;;;2071784;28;7010;-60
2021/03/30 02:07:00;;;;;;;;;;;;;;;;;;2066230;28;7101;-60
2021/03/30 02:08:04;;;;;;;;;;;;;;;;;;2064654;28;7042;-60
2021/03/30 02:09:09;;;;;;;;;;;;;;;;;;2063944;28;7092;-61
2021/03/30 02:10:28;;;;;;;;;;;;;;;;;;2070818;28;7021;-60
2021/03/30 02:11:36;;;;;;;;;;;;;;;;;;2072008;28;7288;-60
2021/03/30 02:12:43;;;;;;;;;;;;;;;;;;2070652;28;7125;-60
2021/03/30 02:13:53;;;;;;;;;;;;;;;;;;2071076;28;7041;-60
2021/03/30 02:14:55;;;;;;;;;;;;;;;;;;2071388;28;8083;-60
2021/03/30 02:16:08;;;;;;;;;;;;;;;;;;2071238;28;8170;-60
2021/03/30 02:17:26;;;;;;;;;;;;;;;;;;2067679;28;8008;-60
2021/03/30 02:18:31;;;;;;;;;;;;;;;;;;2069122;28;7142;-60
2021/03/30 02:19:39;;;;;;;;;;;;;;;;;;2063103;28;7140;-60
2021/03/30 02:20:41;;;;;;;;;;;;;;;;;;2070211;28;7084;-60
2021/03/30 02:21:53;;;;;;;;;;;;;;;;;;2065735;28;7034;-60
2021/03/30 02:23:21;;;;;;;;;;;;;;;;;;2066645;28;7006;-60
2021/03/30 02:24:25;;;;;;;;;;;;;;;;;;2069131;28;7046;-60
2021/03/30 02:25:29;;;;;;;;;;;;;;;;;;2064138;28;7339;-60
2021/03/30 02:26:34;;;;;;;;;;;;;;;;;;2070852;28;7986;-60
2021/03/30 02:27:39;;;;;;;;;;;;;;;;;;2071424;28;7113;-60
2021/03/30 02:28:45;;;;;;;;;;;;;;;;;;2072012;28;7009;-60
2021/03/30 02:29:49;;;;;;;;;;;;;;;;;;2063848;28;7309;-60
2021/03/30 02:30:53;;;;;;;;;;;;;;;;;;2070527;28;7009;-60
2021/03/30 02:31:57;;;;;;;;;;;;;;;;;;2071336;28;7009;-60
2021/03/30 02:33:00;;;;;;;;;;;;;;;;;;2071115;28;7049;-60
2021/03/30 02:34:05;;;;;;;;;;;;;;;;;;2071435;28;7292;-60
2021/03/30 02:35:08;;;;;;;;;;;;;;;;;;2070631;28;7045;-60
2021/03/30 02:36:11;;;;;;;;;;;;;;;;;;2071367;28;7009;-60
2021/03/30 02:37:13;;;;;;;;;;;;;;;;;;2071213;28;7113;-60
2021/03/30 02:38:15;;;;;;;;;;;;;;;;;;2070603;28;7109;-60
2021/03/30 02:39:18;;;;;;;;;;;;;;;;;;2071564;28;7158;-60
2021/03/30 02:40:22;;;;;;;;;;;;;;;;;;2071618;28;7096;-59
2021/03/30 02:41:26;;;;;;;;;;;;;;;;;;2070954;28;7085;-60
2021/03/30 02:42:29;;;;;;;;;;;;;;;;;;2071655;28;7088;-60
2021/03/30 02:43:33;;;;;;;;;;;;;;;;;;2070997;28;7084;-61
2021/03/30 02:44:36;;;;;;;;;;;;;;;;;;2071227;28;7025;-60
2021/03/30 02:45:41;;;;;;;;;;;;;;;;;;2066214;28;7013;-60
2021/03/30 02:46:45;;;;;;;;;;;;;;;;;;2063228;28;7113;-60
2021/03/30 02:47:49;;;;;;;;;;;;;;;;;;2063161;28;7009;-60
2021/03/30 02:48:53;;;;;;;;;;;;;;;;;;2063481;28;7109;-60
2021/03/30 02:49:55;;;;;;;;;;;;;;;;;;2063362;28;7013;-60
2021/03/30 02:50:57;;;;;;;;;;;;;;;;;;2063771;28;7092;-60
2021/03/30 02:52:00;;;;;;;;;;;;;;;;;;2063439;28;7131;-60
2021/03/30 02:53:04;;;;;;;;;;;;;;;;;;2063063;28;7022;-60
2021/03/30 02:54:07;;;;;;;;;;;;;;;;;;2063002;28;8410;-60
2021/03/30 02:55:09;;;;;;;;;;;;;;;;;;2063118;28;9032;-59
2021/03/30 02:56:11;;;;;;;;;;;;;;;;;;2063220;28;7005;-60
2021/03/30 02:57:14;;;;;;;;;;;;;;;;;;2063192;28;7151;-60
2021/03/30 02:58:17;;;;;;;;;;;;;;;;;;2062892;28;7038;-60
2021/03/30 02:59:20;;;;;;;;;;;;;;;;;;2063122;28;7761;-60
2021/03/30 03:00:22;;;;;;;;;;;;;;;;;;2062173;28;7006;-60
2021/03/30 03:01:24;;;;;;;;;;;;;;;;;;2062931;28;8013;-60
2021/03/30 03:02:27;;;;;;;;;;;;;;;;;;2063282;28;7005;-60
2021/03/30 03:03:31;;;;;;;;;;;;;;;;;;2071155;28;7013;-60
2021/03/30 03:04:34;;;;;;;;;;;;;;;;;;2070551;28;7021;-60
2021/03/30 03:05:37;;;;;;;;;;;;;;;;;;2071099;28;7320;-60
2021/03/30 03:06:40;;;;;;;;;;;;;;;;;;2071638;28;7005;-60
2021/03/30 03:07:43;;;;;;;;;;;;;;;;;;2071346;28;7009;-60
2021/03/30 03:08:51;;;;;;;;;;;;;;;;;;2067917;28;7013;-60
2021/03/30 03:09:55;;;;;;;;;;;;;;;;;;2071091;28;7021;-60
2021/03/30 03:10:58;;;;;;;;;;;;;;;;;;2070849;28;8035;-60
2021/03/30 03:12:01;;;;;;;;;;;;;;;;;;2070956;28;7074;-60
2021/03/30 03:13:05;;;;;;;;;;;;;;;;;;2070830;28;7121;-60
2021/03/30 03:14:09;;;;;;;;;;;;;;;;;;2070908;28;7081;-60
2021/03/30 03:15:14;;;;;;;;;;;;;;;;;;2071229;28;8005;-59
2021/03/30 03:16:19;;;;;;;;;;;;;;;;;;2063813;28;7134;-60
2021/03/30 03:17:21;;;;;;;;;;;;;;;;;;2062725;28;7096;-61
2021/03/30 03:18:24;;;;;;;;;;;;;;;;;;2062313;28;7014;-60
2021/03/30 03:19:27;;;;;;;;;;;;;;;;;;2062438;28;7010;-60
2021/03/30 03:20:30;;;;;;;;;;;;;;;;;;2062581;28;8027;-60
2021/03/30 03:21:32;;;;;;;;;;;;;;;;;;2066493;28;7048;-60
2021/03/30 03:22:36;;;;;;;;;;;;;;;;;;2069322;28;8991;-60
2021/03/30 03:23:43;;;;;;;;;;;;;;;;;;2070329;28;7006;-60
2021/03/30 03:24:47;;;;;;;;;;;;;;;;;;2070510;28;7033;-60
2021/03/30 03:25:49;;;;;;;;;;;;;;;;;;2070617;28;7037;-59
2021/03/30 03:26:51;;;;;;;;;;;;;;;;;;2070470;28;7092;-60
2021/03/30 03:27:53;;;;;;;;;;;;;;;;;;2071568;28;7349;-60
2021/03/30 03:28:59;;;;;;;;;;;;;;;;;;2071180;28;7005;-60
2021/03/30 03:30:09;;;;;;;;;;;;;;;;;;2070513;28;8067;-60
2021/03/30 03:31:11;;;;;;;;;;;;;;;;;;2070407;28;7120;-60
2021/03/30 03:32:13;;;;;;;;;;;;;;;;;;2071009;28;7013;-60
2021/03/30 03:33:15;;;;;;;;;;;;;;;;;;2070510;28;7132;-60
2021/03/30 03:34:18;;;;;;;;;;;;;;;;;;2071004;28;7092;-60
2021/03/30 03:35:20;;;;;;;;;;;;;;;;;;2062814;28;7153;-60
2021/03/30 03:36:22;;;;;;;;;;;;;;;;;;2069913;28;7139;-60
2021/03/30 03:37:24;;;;;;;;;;;;;;;;;;2070263;28;7013;-60
2021/03/30 03:38:26;;;;;;;;;;;;;;;;;;2070700;28;7130;-60
2021/03/30 03:39:28;;;;;;;;;;;;;;;;;;2070905;28;7049;-60
2021/03/30 03:40:33;;;;;;;;;;;;;;;;;;2070572;28;7108;-60
2021/03/30 03:41:35;;;;;;;;;;;;;;;;;;2068128;28;7089;-60
2021/03/30 03:42:37;;;;;;;;;;;;;;;;;;2066525;28;8599;-60
2021/03/30 03:43:40;;;;;;;;;;;;;;;;;;2070487;28;7089;-60
2021/03/30 03:44:43;;;;;;;;;;;;;;;;;;2070795;28;7142;-60
2021/03/30 03:45:45;;;;;;;;;;;;;;;;;;2070782;28;7005;-60
2021/03/30 03:46:50;;;;;;;;;;;;;;;;;;2070341;28;7124;-60
2021/03/30 03:47:52;;;;;;;;;;;;;;;;;;2070669;28;7085;-60
2021/03/30 03:48:54;;;;;;;;;;;;;;;;;;2070523;28;7009;-61
2021/03/30 03:49:56;;;;;;;;;;;;;;;;;;2070792;28;7018;-60
2021/03/30 03:51:03;;;;;;;;;;;;;;;;;;2070755;28;7038;-60
2021/03/30 03:52:13;;;;;;;;;;;;;;;;;;2070429;28;7109;-60
2021/03/30 03:53:17;;;;;;;;;;;;;;;;;;2070695;28;7042;-60
2021/03/30 03:54:19;;;;;;;;;;;;;;;;;;2070830;28;7013;-60
2021/03/30 03:55:27;;;;;;;;;;;;;;;;;;2070834;28;7017;-60
2021/03/30 03:56:32;;;;;;;;;;;;;;;;;;2067038;28;7158;-60
2021/03/30 03:57:40;;;;;;;;;;;;;;;;;;2069737;28;7013;-60
2021/03/30 03:58:47;;;;;;;;;;;;;;;;;;2070380;28;7097;-59
2021/03/30 03:59:50;;;;;;;;;;;;;;;;;;2070732;28;7021;-60
2021/03/30 04:00:52;;;;;;;;;;;;;;;;;;2070336;28;7154;-60
2021/03/30 04:02:12;;;;;;;;;;;;;;;;;;2070533;28;7114;-60
2021/03/30 04:03:15;;;;;;;;;;;;;;;;;;2063298;28;7017;-60
2021/03/30 04:04:23;;;;;;;;;;;;;;;;;;2062551;28;7130;-60
2021/03/30 04:05:34;;;;;;;;;;;;;;;;;;2070399;28;7009;-60
2021/03/30 04:06:48;;;;;;;;;;;;;;;;;;2071387;28;7017;-60
2021/03/30 04:07:53;;;;;;;;;;;;;;;;;;2070894;28;7168;-61
2021/03/30 04:08:56;;;;;;;;;;;;;;;;;;2063525;28;7009;-60
2021/03/30 04:10:00;;;;;;;;;;;;;;;;;;2069942;28;7173;-60
2021/03/30 04:11:04;;;;;;;;;;;;;;;;;;2070751;28;7084;-60
2021/03/30 04:12:08;;;;;;;;;;;;;;;;;;2070734;28;7108;-60
2021/03/30 04:13:11;;;;;;;;;;;;;;;;;;2070877;28;9092;-60
2021/03/30 04:14:13;;;;;;;;;;;;;;;;;;2070667;28;8025;-60
2021/03/30 04:15:17;;;;;;;;;;;;;;;;;;2070843;28;7049;-60
2021/03/30 04:16:20;;;;;;;;;;;;;;;;;;2069725;28;8090;-60
2021/03/30 04:17:22;;;;;;;;;;;;;;;;;;2069366;28;7124;-60
2021/03/30 04:18:24;;;;;;;;;;;;;;;;;;2070324;28;7006;-60
2021/03/30 04:19:26;;;;;;;;;;;;;;;;;;2070310;28;7010;-61
2021/03/30 04:20:29;;;;;;;;;;;;;;;;;;2070509;28;7157;-60
2021/03/30 04:21:32;;;;;;;;;;;;;;;;;;2066365;28;7013;-60
2021/03/30 04:22:34;;;;;;;;;;;;;;;;;;2063748;28;7361;-60
2021/03/30 04:23:42;;;;;;;;;;;;;;;;;;2070015;28;7013;-60
2021/03/30 04:24:44;;;;;;;;;;;;;;;;;;2070987;28;7013;-60
2021/03/30 04:25:46;;;;;;;;;;;;;;;;;;2070181;28;7010;-60
2021/03/30 04:26:48;;;;;;;;;;;;;;;;;;2070129;28;7105;-60
2021/03/30 04:27:50;;;;;;;;;;;;;;;;;;2070733;28;7093;-60
2021/03/30 04:28:52;;;;;;;;;;;;;;;;;;2071276;28;8033;-60
2021/03/30 04:29:54;;;;;;;;;;;;;;;;;;2070352;28;7148;-60
2021/03/30 04:30:56;;;;;;;;;;;;;;;;;;2069859;28;7118;-59
2021/03/30 04:31:57;;;;;;;;;;;;;;;;;;2070431;28;7096;-60
2021/03/30 04:33:01;;;;;;;;;;;;;;;;;;2070543;28;8041;-60
2021/03/30 04:34:03;;;;;;;;;;;;;;;;;;2070688;28;7339;-60
2021/03/30 04:35:05;;;;;;;;;;;;;;;;;;2070689;28;7037;-61
2021/03/30 04:36:08;;;;;;;;;;;;;;;;;;2070736;28;7053;-60
2021/03/30 04:37:09;;;;;;;;;;;;;;;;;;2070675;28;7009;-60
2021/03/30 04:38:11;;;;;;;;;;;;;;;;;;2065087;28;7033;-60
2021/03/30 04:39:13;;;;;;;;;;;;;;;;;;2069192;28;9043;-60
2021/03/30 04:40:16;;;;;;;;;;;;;;;;;;2069880;28;7014;-60
2021/03/30 04:41:18;;;;;;;;;;;;;;;;;;2070182;28;7096;-60
2021/03/30 04:42:20;;;;;;;;;;;;;;;;;;2070836;28;7092;-60
2021/03/30 04:43:22;;;;;;;;;;;;;;;;;;2070514;28;7013;-59
2021/03/30 04:44:24;;;;;;;;;;;;;;;;;;2070507;28;7088;-60
2021/03/30 04:45:26;;;;;;;;;;;;;;;;;;2070686;28;7050;-60
2021/03/30 04:46:28;;;;;;;;;;;;;;;;;;2062638;28;7376;-60
2021/03/30 04:47:29;;;;;;;;;;;;;;;;;;2062629;28;7017;-60
2021/03/30 04:48:32;;;;;;;;;;;;;;;;;;2062328;28;7050;-60
2021/03/30 04:49:33;;;;;;;;;;;;;;;;;;2062674;28;8128;-60
2021/03/30 04:50:35;;;;;;;;;;;;;;;;;;2062844;28;7109;-60
2021/03/30 04:51:37;;;;;;;;;;;;;;;;;;2063560;28;7324;-60
2021/03/30 04:52:39;;;;;;;;;;;;;;;;;;2063289;28;7184;-60
2021/03/30 04:53:41;;;;;;;;;;;;;;;;;;2063052;28;7138;-60
2021/03/30 04:54:43;;;;;;;;;;;;;;;;;;2062250;28;7154;-60
2021/03/30 04:55:45;;;;;;;;;;;;;;;;;;2062454;28;7121;-60
2021/03/30 04:56:47;;;;;;;;;;;;;;;;;;2062135;28;7096;-59
2021/03/30 04:57:49;;;;;;;;;;;;;;;;;;2061762;28;7096;-60
2021/03/30 04:58:51;;;;;;;;;;;;;;;;;;2070100;28;7410;-60
2021/03/30 04:59:53;;;;;;;;;;;;;;;;;;2070588;28;7045;-60
2021/03/30 05:00:55;;;;;;;;;;;;;;;;;;2071691;28;7046;-60
2021/03/30 05:01:57;;;;;;;;;;;;;;;;;;2071250;28;7075;-60
2021/03/30 05:02:59;;;;;;;;;;;;;;;;;;2072045;28;7101;-60
2021/03/30 05:04:01;;;;;;;;;;;;;;;;;;2071912;28;7096;-60
2021/03/30 05:05:07;;;;;;;;;;;;;;;;;;2064161;28;7106;-60
2021/03/30 05:06:09;;;;;;;;;;;;;;;;;;2064465;28;7093;-61
2021/03/30 05:07:11;;;;;;;;;;;;;;;;;;2064048;28;7050;-60
2021/03/30 05:08:14;;;;;;;;;;;;;;;;;;2064881;28;7483;-60
2021/03/30 05:09:16;;;;;;;;;;;;;;;;;;2063968;28;8446;-60
2021/03/30 05:10:18;;;;;;;;;;;;;;;;;;2064706;28;7005;-61
2021/03/30 05:11:20;;;;;;;;;;;;;;;;;;2064410;28;7009;-60
2021/03/30 05:12:22;;;;;;;;;;;;;;;;;;2067683;28;7109;-60
2021/03/30 05:13:23;;;;;;;;;;;;;;;;;;2071642;28;7038;-60
2021/03/30 05:14:25;;;;;;;;;;;;;;;;;;2071657;28;7084;-60
2021/03/30 05:15:27;;;;;;;;;;;;;;;;;;2069745;28;7018;-60
2021/03/30 05:16:29;;;;;;;;;;;;;;;;;;2063866;28;7116;-60
2021/03/30 05:17:31;;;;;;;;;;;;;;;;;;2063692;28;7128;-61
2021/03/30 05:18:33;;;;;;;;;;;;;;;;;;2064165;28;7046;-60
2021/03/30 05:19:35;;;;;;;;;;;;;;;;;;2063891;28;7009;-60
2021/03/30 05:20:37;;;;;;;;;;;;;;;;;;2063937;28;7013;-60
2021/03/30 05:21:39;;;;;;;;;;;;;;;;;;2068444;28;7022;-60
2021/03/30 05:22:41;;;;;;;;;;;;;;;;;;2069682;28;7005;-60
2021/03/30 05:23:43;;;;;;;;;;;;;;;;;;2064883;28;7033;-60
2021/03/30 05:24:45;;;;;;;;;;;;;;;;;;2071585;28;7100;-60
2021/03/30 05:25:46;;;;;;;;;;;;;;;;;;2071742;28;9061;-60
2021/03/30 05:26:48;;;;;;;;;;;;;;;;;;2071679;28;7046;-60
2021/03/30 05:27:50;;;;;;;;;;;;;;;;;;2071691;28;7109;-60
2021/03/30 05:28:52;;;;;;;;;;;;;;;;;;2072029;28;7009;-60
2021/03/30 05:29:54;;;;;;;;;;;;;;;;;;2071271;28;8013;-60
2021/03/30 05:30:56;;;;;;;;;;;;;;;;;;2070919;28;7092;-60
2021/03/30 05:31:58;;;;;;;;;;;;;;;;;;2072061;28;7028;-60
2021/03/30 05:33:00;;;;;;;;;;;;;;;;;;2072189;28;7100;-61
2021/03/30 05:34:03;;;;;;;;;;;;;;;;;;2064170;28;7080;-60
2021/03/30 05:35:09;;;;;;;;;;;;;;;;;;2064352;28;7051;-60
2021/03/30 05:36:16;;;;;;;;;;;;;;;;;;2064135;28;7013;-61
2021/03/30 05:37:18;;;;;;;;;;;;;;;;;;2064072;28;7113;-60
2021/03/30 05:38:20;;;;;;;;;;;;;;;;;;2063919;28;7117;-60
2021/03/30 05:39:22;;;;;;;;;;;;;;;;;;2064154;28;7013;-60
2021/03/30 05:40:25;;;;;;;;;;;;;;;;;;2064091;28;7096;-60
2021/03/30 05:41:27;;;;;;;;;;;;;;;;;;2063851;28;8070;-60
2021/03/30 05:42:29;;;;;;;;;;;;;;;;;;2063810;28;7005;-61
2021/03/30 05:43:31;;;;;;;;;;;;;;;;;;2063828;28;7093;-61
2021/03/30 05:44:33;;;;;;;;;;;;;;;;;;2063699;28;7009;-60
2021/03/30 05:45:35;;;;;;;;;;;;;;;;;;2063933;28;7014;-60
2021/03/30 05:46:40;;;;;;;;;;;;;;;;;;2063947;28;7138;-60
2021/03/30 05:47:42;;;;;;;;;;;;;;;;;;2071257;28;7288;-60
2021/03/30 05:48:46;;;;;;;;;;;;;;;;;;2071576;28;7084;-59
2021/03/30 05:49:49;;;;;;;;;;;;;;;;;;2071906;28;7976;-60
2021/03/30 05:50:51;;;;;;;;;;;;;;;;;;2072377;28;7005;-60
2021/03/30 05:51:54;;;;;;;;;;;;;;;;;;2064475;28;7022;-61
2021/03/30 05:53:05;;;;;;;;;;;;;;;;;;2064252;28;7035;-60
2021/03/30 05:54:10;;;;;;;;;;;;;;;;;;2071830;28;7137;-60
2021/03/30 05:55:20;;;;;;;;;;;;;;;;;;2065289;28;7113;-60
2021/03/30 05:56:22;;;;;;;;;;;;;;;;;;2072228;28;7288;-61
2021/03/30 05:57:27;;;;;;;;;;;;;;;;;;2071635;28;7693;-61
2021/03/30 05:58:31;;;;;;;;;;;;;;;;;;2071749;28;7013;-61
2021/03/30 05:59:35;;;;;;;;;;;;;;;;;;2071838;28;7013;-61
2021/03/30 06:00:39;;;;;;;;;;;;;;;;;;2071598;28;7117;-60
2021/03/30 06:01:41;;;;;;;;;;;;;;;;;;2071704;28;7131;-60
2021/03/30 06:02:45;;;;;;;;;;;;;;;;;;2071553;28;7043;-61
2021/03/30 06:03:47;;;;;;;;;;;;;;;;;;2079026;28;7335;-60
2021/03/30 06:04:50;;;;;;;;;;;;;;;;;;2079051;28;7063;-60
2021/03/30 06:05:56;;;;;;;;;;;;;;;;;;2071497;28;7995;-60
2021/03/30 06:06:58;;;;;;;;;;;;;;;;;;2071909;28;7155;-61
2021/03/30 06:08:01;;;;;;;;;;;;;;;;;;2069807;28;7010;-61
2021/03/30 06:09:06;;;;;;;;;;;;;;;;;;2063863;28;7009;-61
2021/03/30 06:10:10;;;;;;;;;;;;;;;;;;2062777;28;7010;-61
2021/03/30 06:11:13;;;;;;;;;;;;;;;;;;2063407;28;8995;-60
2021/03/30 06:12:16;;;;;;;;;;;;;;;;;;2063302;28;7017;-60
2021/03/30 06:13:37;;;;;;;;;;;;;;;;;;2063380;28;7089;-61
2021/03/30 06:14:39;;;;;;;;;;;;;;;;;;2070673;28;8049;-60
2021/03/30 06:15:41;;;;;;;;;;;;;;;;;;2071556;28;7980;-60
2021/03/30 06:16:46;;;;;;;;;;;;;;;;;;2070260;28;7121;-61
2021/03/30 06:17:50;;;;;;;;;;;;;;;;;;2071264;28;8036;-60
2021/03/30 06:19:02;;;;;;;;;;;;;;;;;;2068805;28;7101;-60
2021/03/30 06:20:05;;;;;;;;;;;;;;;;;;2066201;28;7141;-61
2021/03/30 06:21:15;;;;;;;;;;;;;;;;;;2064278;28;7025;-61
2021/03/30 06:22:18;;;;;;;;;;;;;;;;;;2071013;28;7025;-60
2021/03/30 06:23:27;;;;;;;;;;;;;;;;;;2063849;28;8060;-60
2021/03/30 06:24:31;;;;;;;;;;;;;;;;;;2063464;28;7982;-61
2021/03/30 06:25:37;;;;;;;;;;;;;;;;;;2063968;28;7017;-60
2021/03/30 06:26:39;;;;;;;;;;;;;;;;;;2070694;28;7010;-61
2021/03/30 06:27:41;;;;;;;;;;;;;;;;;;2071839;28;7009;-61
2021/03/30 06:28:43;;;;;;;;;;;;;;;;;;2071830;28;8035;-61
2021/03/30 06:29:46;;;;;;;;;;;;;;;;;;2070955;28;7030;-61
2021/03/30 06:30:53;;;;;;;;;;;;;;;;;;2063784;28;7100;-61
2021/03/30 06:31:55;;;;;;;;;;;;;;;;;;2070369;28;7088;-61
2021/03/30 06:32:58;;;;;;;;;;;;;;;;;;2071703;28;7033;-61
2021/03/30 06:34:00;;;;;;;;;;;;;;;;;;2063345;28;7006;-60
2021/03/30 06:35:13;;;;;;;;;;;;;;;;;;2063540;28;8030;-61
2021/03/30 06:36:15;;;;;;;;;;;;;;;;;;2063579;28;7017;-61
2021/03/30 06:37:26;;;;;;;;;;;;;;;;;;2063215;28;7134;-61
2021/03/30 06:38:45;;;;;;;;;;;;;;;;;;2063225;28;7010;-60
2021/03/30 06:39:47;;;;;;;;;;;;;;;;;;2071775;28;7013;-61
2021/03/30 06:40:51;;;;;;;;;;;;;;;;;;2071480;28;8033;-61
2021/03/30 06:42:00;;;;;;;;;;;;;;;;;;2071341;28;8074;-59
2021/03/30 06:44:59;;;;;;;;;;;;;;;;;;2053975;28;7501;-60
2021/03/30 06:46:02;;;;;;;;;;;;;;;;;;2054474;28;8019;-61
2021/03/30 06:47:04;;;;;;;;;;;;;;;;;;2056394;28;7010;-60
2021/03/30 06:48:07;;;;;;;;;;;;;;;;;;2064760;28;7025;-60
2021/03/30 06:49:14;;;;;;;;;;;;;;;;;;2063245;28;7253;-61
2021/03/30 06:50:18;;;;;;;;;;;;;;;;;;2071421;28;7109;-61
2021/03/30 06:51:22;;;;;;;;;;;;;;;;;;2064134;28;7109;-61
2021/03/30 06:52:28;;;;;;;;;;;;;;;;;;2062839;28;7108;-60
2021/03/30 06:53:32;;;;;;;;;;;;;;;;;;2063302;28;7113;-61
2021/03/30 06:54:34;;;;;;;;;;;;;;;;;;2063528;28;8059;-60
2021/03/30 06:55:45;;;;;;;;;;;;;;;;;;2063535;28;8055;-61
2021/03/30 06:56:51;;;;;;;;;;;;;;;;;;2070807;28;7092;-61
2021/03/30 06:57:58;;;;;;;;;;;;;;;;;;2070954;28;8064;-61
2021/03/30 06:59:00;;;;;;;;;;;;;;;;;;2071311;28;7096;-61
2021/03/30 07:00:07;;;;;;;;;;;;;;;;;;2071469;28;7093;-61
2021/03/30 07:01:09;;;;;;;;;;;;;;;;;;2071977;28;7336;-60
2021/03/30 07:02:11;;;;;;;;;;;;;;;;;;2071011;28;7045;-62
2021/03/30 07:03:18;;;;;;;;;;;;;;;;;;2071270;28;7013;-61
2021/03/30 07:04:21;;;;;;;;;;;;;;;;;;2063538;28;7093;-61
2021/03/30 07:05:23;;;;;;;;;;;;;;;;;;2071478;28;7343;-60
2021/03/30 07:06:26;;;;;;;;;;;;;;;;;;2070777;28;7233;-61
2021/03/30 07:07:28;;;;;;;;;;;;;;;;;;2071057;28;8016;-61
2021/03/30 07:08:30;;;;;;;;;;;;;;;;;;2067433;28;8027;-61
2021/03/30 07:09:34;;;;;;;;;;;;;;;;;;2063426;28;7092;-61
2021/03/30 07:10:38;;;;;;;;;;;;;;;;;;2062850;28;7046;-61
2021/03/30 07:11:40;;;;;;;;;;;;;;;;;;2063375;28;6994;-60
2021/03/30 07:12:43;;;;;;;;;;;;;;;;;;2062747;28;7093;-61
2021/03/30 07:13:46;;;;;;;;;;;;;;;;;;2062769;28;8027;-61
2021/03/30 07:14:48;;;;;;;;;;;;;;;;;;2063150;28;7030;-61
2021/03/30 07:15:54;;;;;;;;;;;;;;;;;;2063019;28;7092;-62
2021/03/30 07:16:56;;;;;;;;;;;;;;;;;;2070819;28;7406;-61
2021/03/30 07:18:17;;;;;;;;;;;;;;;;;;2070739;28;7976;-60
2021/03/30 07:19:22;;;;;;;;;;;;;;;;;;2070712;28;8158;-60
2021/03/30 07:20:25;;;;;;;;;;;;;;;;;;2070615;28;7046;-61
2021/03/30 07:21:32;;;;;;;;;;;;;;;;;;2067228;28;7211;-60
2021/03/30 07:22:37;;;;;;;;;;;;;;;;;;2070484;28;7203;-60
2021/03/30 07:23:42;;;;;;;;;;;;;;;;;;2070565;28;7014;-61
2021/03/30 07:24:55;;;;;;;;;;;;;;;;;;2063980;28;7006;-61
2021/03/30 07:26:19;;;;;;;;;;;;;;;;;;2070969;28;7092;-62
2021/03/30 07:27:24;;;;;;;;;;;;;;;;;;2070922;28;7014;-61
2021/03/30 07:28:32;;;;;;;;;;;;;;;;;;2070955;28;8027;-61